Time;durP1;ratioP1;P1;durP2;ratioP2;P2;SDS_P1;SDS_P2;PMS_P1;PMS_P2;Temp;Humidity;BMP_temperature;BMP_pressure;BME280_temperature;BME280_humidity;BME280_pressure;Samples;Min_cycle;Max_cycle;Signal;HPM_P1;HPM_P2
2023/09/07 00:00:43;;;;;;;0.40;0.40;;;;;;;;;;5067690;28;20027;-77
2023/09/07 00:03:09;;;;;;;0.40;0.40;;;;;;;;;;5045497;28;20021;-78
2023/09/07 00:05:35;;;;;;;0.50;0.50;;;;;;;;;;5036368;28;20024;-78
2023/09/07 00:08:01;;;;;;;0.45;0.45;;;;;;;;;;5036574;28;20036;-77
2023/09/07 00:10:27;;;;;;;0.50;0.50;;;;;;;;;;5036342;28;20060;-77
2023/09/07 00:12:53;;;;;;;0.50;0.50;;;;;;;;;;5054412;28;20068;-78
2023/09/07 00:15:21;;;;;;;0.50;0.50;;;;;;;;;;5036004;28;20054;-78
2023/09/07 00:17:47;;;;;;;0.40;0.40;;;;;;;;;;5054339;28;20488;-78
2023/09/07 00:20:16;;;;;;;0.77;0.77;;;;;;;;;;5036110;28;20112;-78
2023/09/07 00:22:42;;;;;;;0.50;0.50;;;;;;;;;;5036146;28;20025;-78
2023/09/07 00:25:09;;;;;;;0.40;0.40;;;;;;;;;;5035990;28;20075;-77
2023/09/07 00:27:35;;;;;;;0.57;0.57;;;;;;;;;;5036039;28;20387;-78
2023/09/07 00:30:01;;;;;;;0.57;0.57;;;;;;;;;;5035643;28;20024;-77
2023/09/07 00:32:27;;;;;;;0.52;0.52;;;;;;;;;;5035503;28;20154;-78
2023/09/07 00:34:54;;;;;;;0.50;0.50;;;;;;;;;;5036007;28;20082;-77
2023/09/07 00:37:20;;;;;;;0.57;0.57;;;;;;;;;;5035672;28;20021;-77
2023/09/07 00:39:46;;;;;;;0.70;0.70;;;;;;;;;;5035910;28;20027;-78
2023/09/07 00:42:12;;;;;;;0.40;0.40;;;;;;;;;;5035844;28;20512;-78
2023/09/07 00:44:38;;;;;;;0.50;0.50;;;;;;;;;;5035424;28;20029;-78
2023/09/07 00:47:05;;;;;;;0.82;0.82;;;;;;;;;;5053615;28;20025;-78
2023/09/07 00:49:31;;;;;;;0.82;0.82;;;;;;;;;;5057213;28;20093;-75
2023/09/07 00:51:57;;;;;;;0.55;0.55;;;;;;;;;;5053454;28;20031;-78
2023/09/07 00:54:23;;;;;;;0.40;0.40;;;;;;;;;;5054467;28;20482;-78
2023/09/07 00:56:50;;;;;;;0.50;0.50;;;;;;;;;;5053706;28;20520;-78
2023/09/07 00:59:16;;;;;;;0.40;0.40;;;;;;;;;;5035824;28;20108;-77
2023/09/07 01:01:43;;;;;;;0.60;0.60;;;;;;;;;;5035571;28;20056;-78
2023/09/07 01:04:09;;;;;;;0.85;0.60;;;;;;;;;;5035169;28;20442;-78
2023/09/07 01:06:40;;;;;;;0.50;0.50;;;;;;;;;;5035842;28;20378;-78
2023/09/07 01:09:17;;;;;;;0.50;0.50;;;;;;;;;;5036412;28;20060;-77
2023/09/07 01:11:44;;;;;;;0.40;0.40;;;;;;;;;;5052883;28;20111;-78
2023/09/07 01:14:10;;;;;;;0.68;0.68;;;;;;;;;;5035471;28;20021;-79
2023/09/07 01:16:38;;;;;;;0.57;0.57;;;;;;;;;;5035481;28;20108;-78
2023/09/07 01:19:06;;;;;;;0.60;0.60;;;;;;;;;;5035142;28;20116;-78
2023/09/07 01:21:36;;;;;;;0.40;0.40;;;;;;;;;;5035456;28;20028;-78
2023/09/07 01:24:03;;;;;;;0.55;0.55;;;;;;;;;;5035312;28;20021;-79
2023/09/07 01:26:29;;;;;;;0.63;0.63;;;;;;;;;;5035034;28;20025;-78
2023/09/07 01:28:56;;;;;;;0.50;0.50;;;;;;;;;;5035387;28;20025;-78
2023/09/07 01:31:22;;;;;;;0.50;0.50;;;;;;;;;;5035360;28;20108;-79
2023/09/07 01:33:48;;;;;;;0.47;0.47;;;;;;;;;;5052921;28;20041;-79
2023/09/07 01:36:14;;;;;;;0.60;0.60;;;;;;;;;;5035389;28;20091;-78
2023/09/07 01:38:40;;;;;;;0.40;0.40;;;;;;;;;;5053497;28;20031;-78
2023/09/07 01:41:06;;;;;;;0.50;0.50;;;;;;;;;;5052477;28;20029;-79
2023/09/07 01:43:32;;;;;;;0.50;0.50;;;;;;;;;;5037124;28;20386;-78
2023/09/07 01:45:58;;;;;;;0.40;0.40;;;;;;;;;;5038627;28;20029;-78
2023/09/07 01:48:24;;;;;;;0.40;0.40;;;;;;;;;;5056640;28;20161;-78
2023/09/07 01:50:54;;;;;;;0.50;0.50;;;;;;;;;;5038996;28;20469;-78
2023/09/07 01:53:21;;;;;;;0.50;0.50;;;;;;;;;;5056069;28;20021;-78
2023/09/07 01:55:47;;;;;;;0.40;0.40;;;;;;;;;;5056553;28;20431;-78
2023/09/07 01:58:14;;;;;;;0.50;0.50;;;;;;;;;;5038693;28;20023;-78
2023/09/07 02:00:40;;;;;;;0.60;0.60;;;;;;;;;;5056803;28;20473;-79
2023/09/07 02:03:06;;;;;;;0.57;0.57;;;;;;;;;;5038715;28;20029;-78
2023/09/07 02:05:33;;;;;;;0.50;0.50;;;;;;;;;;5038588;28;20068;-78
2023/09/07 02:07:59;;;;;;;0.60;0.60;;;;;;;;;;5038395;28;20029;-78
2023/09/07 02:10:26;;;;;;;0.80;0.80;;;;;;;;;;5038525;28;20025;-78
2023/09/07 02:12:52;;;;;;;0.50;0.50;;;;;;;;;;5038851;28;20481;-78
2023/09/07 02:15:18;;;;;;;0.75;0.75;;;;;;;;;;5055941;28;20123;-78
2023/09/07 02:17:45;;;;;;;0.50;0.50;;;;;;;;;;5038414;28;20095;-77
2023/09/07 02:20:14;;;;;;;0.50;0.50;;;;;;;;;;5038393;28;20025;-78
2023/09/07 02:22:40;;;;;;;0.57;0.57;;;;;;;;;;5055630;28;20025;-79
2023/09/07 02:25:07;;;;;;;0.80;0.75;;;;;;;;;;5056353;28;20025;-78
2023/09/07 02:27:34;;;;;;;0.50;0.50;;;;;;;;;;5038145;28;20033;-78
2023/09/07 02:30:01;;;;;;;0.40;0.40;;;;;;;;;;5037950;28;20021;-78
2023/09/07 02:32:27;;;;;;;0.40;0.40;;;;;;;;;;5038158;28;20033;-78
2023/09/07 02:34:54;;;;;;;0.50;0.50;;;;;;;;;;5055653;28;20059;-78
2023/09/07 02:37:20;;;;;;;0.50;0.50;;;;;;;;;;5038329;28;20431;-78
2023/09/07 02:39:46;;;;;;;0.45;0.45;;;;;;;;;;5056126;28;20027;-78
2023/09/07 02:42:12;;;;;;;0.45;0.45;;;;;;;;;;5055774;28;20026;-78
2023/09/07 02:44:39;;;;;;;0.40;0.40;;;;;;;;;;5037908;28;20024;-78
2023/09/07 02:47:05;;;;;;;0.40;0.40;;;;;;;;;;5037884;28;20382;-78
2023/09/07 02:49:31;;;;;;;1.00;0.60;;;;;;;;;;5055441;28;20104;-78
2023/09/07 02:51:57;;;;;;;0.50;0.50;;;;;;;;;;5037807;28;20074;-78
2023/09/07 02:54:23;;;;;;;0.50;0.50;;;;;;;;;;5036787;28;20053;-78
2023/09/07 02:56:50;;;;;;;0.50;0.50;;;;;;;;;;5037822;28;20474;-78
2023/09/07 02:59:16;;;;;;;0.50;0.50;;;;;;;;;;5038183;28;20036;-79
2023/09/07 03:01:42;;;;;;;0.77;0.77;;;;;;;;;;5037673;28;20409;-77
2023/09/07 03:04:08;;;;;;;0.40;0.40;;;;;;;;;;5037209;28;20079;-78
2023/09/07 03:06:34;;;;;;;0.40;0.40;;;;;;;;;;5037524;28;20447;-78
2023/09/07 03:09:00;;;;;;;0.85;0.60;;;;;;;;;;5037980;28;20035;-78
2023/09/07 03:11:26;;;;;;;0.60;0.60;;;;;;;;;;5037312;28;20020;-78
2023/09/07 03:13:52;;;;;;;0.82;0.82;;;;;;;;;;5055215;28;20021;-78
2023/09/07 03:16:19;;;;;;;0.68;0.68;;;;;;;;;;5037303;28;20039;-78
2023/09/07 03:18:45;;;;;;;0.40;0.40;;;;;;;;;;5036859;28;20025;-78
2023/09/07 03:21:11;;;;;;;0.50;0.50;;;;;;;;;;5037416;28;20017;-78
2023/09/07 03:23:39;;;;;;;0.50;0.50;;;;;;;;;;5055039;28;20526;-78
2023/09/07 03:26:05;;;;;;;0.50;0.50;;;;;;;;;;5036828;28;20044;-78
2023/09/07 03:28:31;;;;;;;0.50;0.50;;;;;;;;;;5037054;28;20025;-79
2023/09/07 03:30:57;;;;;;;0.45;0.45;;;;;;;;;;5054754;28;20025;-79
2023/09/07 03:33:24;;;;;;;0.50;0.50;;;;;;;;;;5054891;28;20017;-79
2023/09/07 03:35:51;;;;;;;0.50;0.50;;;;;;;;;;5036902;28;20029;-80
2023/09/07 03:38:18;;;;;;;0.55;0.55;;;;;;;;;;5036623;28;20521;-78
2023/09/07 03:40:44;;;;;;;0.50;0.50;;;;;;;;;;5036894;28;20021;-78
2023/09/07 03:43:10;;;;;;;0.60;0.60;;;;;;;;;;5054615;28;20451;-78
2023/09/07 03:45:36;;;;;;;0.60;0.60;;;;;;;;;;5054361;28;20127;-78
2023/09/07 03:48:03;;;;;;;0.55;0.55;;;;;;;;;;5054843;28;20031;-77
2023/09/07 03:50:29;;;;;;;0.50;0.50;;;;;;;;;;5054588;28;20024;-78
2023/09/07 03:52:55;;;;;;;0.57;0.57;;;;;;;;;;5036424;28;20354;-77
2023/09/07 03:55:21;;;;;;;0.40;0.40;;;;;;;;;;5036457;28;20486;-78
2023/09/07 03:57:47;;;;;;;0.57;0.57;;;;;;;;;;5054191;28;20028;-80
2023/09/07 04:00:14;;;;;;;0.60;0.60;;;;;;;;;;5036251;28;20068;-78
2023/09/07 04:02:40;;;;;;;0.50;0.50;;;;;;;;;;5036479;28;20021;-77
2023/09/07 04:05:06;;;;;;;0.55;0.55;;;;;;;;;;5036060;28;20033;-77
2023/09/07 04:07:33;;;;;;;0.60;0.60;;;;;;;;;;5035737;28;20028;-77
2023/09/07 04:09:59;;;;;;;0.40;0.40;;;;;;;;;;5036378;28;20025;-77
2023/09/07 04:12:26;;;;;;;0.57;0.57;;;;;;;;;;5054089;28;20378;-77
2023/09/07 04:14:53;;;;;;;0.60;0.60;;;;;;;;;;5036891;28;20028;-76
2023/09/07 04:17:19;;;;;;;0.50;0.50;;;;;;;;;;5059463;28;20008;-77
2023/09/07 04:19:45;;;;;;;0.60;0.60;;;;;;;;;;5046176;28;20082;-77
2023/09/07 04:22:12;;;;;;;0.50;0.50;;;;;;;;;;5054685;28;20092;-77
2023/09/07 04:24:38;;;;;;;0.63;0.63;;;;;;;;;;5036211;28;20037;-77
2023/09/07 04:27:04;;;;;;;0.57;0.57;;;;;;;;;;5054126;28;20474;-77
2023/09/07 04:29:30;;;;;;;1.40;0.77;;;;;;;;;;5053923;28;20079;-78
2023/09/07 04:31:56;;;;;;;0.57;0.57;;;;;;;;;;5036027;28;20102;-77
2023/09/07 04:34:23;;;;;;;0.50;0.50;;;;;;;;;;5035646;28;20028;-77
2023/09/07 04:36:49;;;;;;;0.60;0.60;;;;;;;;;;5035869;28;20021;-78
2023/09/07 04:39:15;;;;;;;0.52;0.52;;;;;;;;;;5053777;28;20470;-78
2023/09/07 04:41:41;;;;;;;0.50;0.50;;;;;;;;;;5036080;28;20095;-77
2023/09/07 04:44:08;;;;;;;0.50;0.50;;;;;;;;;;5035502;28;20028;-78
2023/09/07 04:46:34;;;;;;;0.40;0.40;;;;;;;;;;5053911;28;20068;-77
2023/09/07 04:49:00;;;;;;;0.95;0.70;;;;;;;;;;5035444;28;20120;-77
2023/09/07 04:51:26;;;;;;;0.60;0.60;;;;;;;;;;5036317;28;20381;-78
2023/09/07 04:53:52;;;;;;;0.60;0.60;;;;;;;;;;5035450;28;20060;-77
2023/09/07 04:56:19;;;;;;;0.55;0.52;;;;;;;;;;5035354;28;20037;-78
2023/09/07 04:58:45;;;;;;;0.47;0.47;;;;;;;;;;5036191;28;20056;-77
2023/09/07 05:01:12;;;;;;;0.70;0.70;;;;;;;;;;5035705;28;20432;-77
2023/09/07 05:03:41;;;;;;;0.55;0.55;;;;;;;;;;5035313;28;20108;-78
2023/09/07 05:06:08;;;;;;;0.60;0.60;;;;;;;;;;5053159;28;20218;-78
2023/09/07 05:08:34;;;;;;;0.55;0.55;;;;;;;;;;5035608;28;20094;-77
2023/09/07 05:11:01;;;;;;;2.80;0.70;;;;;;;;;;5035141;28;20413;-77
2023/09/07 05:13:27;;;;;;;0.40;0.40;;;;;;;;;;5035246;28;20028;-77
2023/09/07 05:15:54;;;;;;;0.50;0.50;;;;;;;;;;5035168;28;20120;-76
2023/09/07 05:18:20;;;;;;;0.50;0.50;;;;;;;;;;5038621;28;20028;-77
2023/09/07 05:20:51;;;;;;;0.50;0.50;;;;;;;;;;5057379;28;20025;-77
2023/09/07 05:23:19;;;;;;;0.63;0.63;;;;;;;;;;5057602;28;20493;-77
2023/09/07 05:25:50;;;;;;;0.50;0.50;;;;;;;;;;5039349;28;20466;-77
2023/09/07 05:28:16;;;;;;;0.40;0.40;;;;;;;;;;5039359;28;20021;-78
2023/09/07 05:30:43;;;;;;;0.45;0.45;;;;;;;;;;5039073;28;20021;-77
2023/09/07 05:33:13;;;;;;;0.65;0.65;;;;;;;;;;5039920;28;20378;-77
2023/09/07 05:35:39;;;;;;;0.73;0.70;;;;;;;;;;5039145;28;20040;-77
2023/09/07 05:38:05;;;;;;;0.40;0.40;;;;;;;;;;5038777;28;20028;-77
2023/09/07 05:40:35;;;;;;;0.50;0.50;;;;;;;;;;5039109;28;20091;-78
2023/09/07 05:43:03;;;;;;;0.45;0.45;;;;;;;;;;5056758;28;20028;-78
2023/09/07 05:45:30;;;;;;;0.55;0.55;;;;;;;;;;5056631;28;20071;-77
2023/09/07 05:47:56;;;;;;;0.57;0.57;;;;;;;;;;5039048;28;20025;-78
2023/09/07 05:50:23;;;;;;;0.50;0.50;;;;;;;;;;5056628;28;20505;-78
2023/09/07 05:52:49;;;;;;;0.55;0.55;;;;;;;;;;5038392;28;20025;-78
2023/09/07 05:55:15;;;;;;;0.60;0.60;;;;;;;;;;5038595;28;20055;-78
2023/09/07 05:57:41;;;;;;;0.50;0.50;;;;;;;;;;5038847;28;20079;-78
2023/09/07 06:00:08;;;;;;;1.23;1.13;;;;;;;;;;5038560;28;20044;-77
2023/09/07 06:02:34;;;;;;;0.40;0.40;;;;;;;;;;5056344;28;20029;-78
2023/09/07 06:05:00;;;;;;;0.60;0.60;;;;;;;;;;5055889;28;20416;-78
2023/09/07 06:07:26;;;;;;;1.02;0.80;;;;;;;;;;5038629;28;20086;-78
2023/09/07 06:09:53;;;;;;;0.40;0.40;;;;;;;;;;5056789;28;20152;-78
2023/09/07 06:12:19;;;;;;;0.50;0.50;;;;;;;;;;5038467;28;20075;-78
2023/09/07 06:14:46;;;;;;;0.60;0.60;;;;;;;;;;5038539;28;20086;-78
2023/09/07 06:17:12;;;;;;;2.72;0.80;;;;;;;;;;5039246;28;20021;-78
2023/09/07 06:19:40;;;;;;;0.50;0.50;;;;;;;;;;5055752;28;20501;-78
2023/09/07 06:22:06;;;;;;;0.40;0.40;;;;;;;;;;5056566;28;20489;-78
2023/09/07 06:24:32;;;;;;;0.65;0.65;;;;;;;;;;5038324;28;20025;-78
2023/09/07 06:26:58;;;;;;;0.88;0.65;;;;;;;;;;5037977;28;20111;-78
2023/09/07 06:29:24;;;;;;;0.68;0.63;;;;;;;;;;5055336;28;20021;-78
2023/09/07 06:31:52;;;;;;;0.40;0.40;;;;;;;;;;5038277;28;20025;-77
2023/09/07 06:34:18;;;;;;;0.50;0.50;;;;;;;;;;5037817;28;20029;-78
2023/09/07 06:36:44;;;;;;;0.40;0.40;;;;;;;;;;5056032;28;20474;-78
2023/09/07 06:39:10;;;;;;;0.50;0.50;;;;;;;;;;5055745;28;20074;-78
2023/09/07 06:41:36;;;;;;;0.40;0.40;;;;;;;;;;5037823;28;20364;-78
2023/09/07 06:44:02;;;;;;;0.40;0.40;;;;;;;;;;5037664;28;20021;-78
2023/09/07 06:46:28;;;;;;;0.60;0.60;;;;;;;;;;5037996;28;20090;-78
2023/09/07 06:48:54;;;;;;;0.52;0.52;;;;;;;;;;5037643;28;20029;-76
2023/09/07 06:51:20;;;;;;;0.47;0.47;;;;;;;;;;5037807;28;20037;-77
2023/09/07 06:53:47;;;;;;;0.65;0.65;;;;;;;;;;5037551;28;20060;-76
2023/09/07 06:56:13;;;;;;;0.40;0.40;;;;;;;;;;5037770;28;20032;-79
2023/09/07 06:58:39;;;;;;;0.55;0.55;;;;;;;;;;5055555;28;20036;-76
2023/09/07 07:01:06;;;;;;;0.52;0.52;;;;;;;;;;5037422;28;20021;-78
2023/09/07 07:03:32;;;;;;;0.40;0.40;;;;;;;;;;5037365;28;20025;-78
2023/09/07 07:05:58;;;;;;;0.73;0.73;;;;;;;;;;5037904;28;20032;-78
2023/09/07 07:08:24;;;;;;;0.82;0.63;;;;;;;;;;5037396;28;20573;-77
2023/09/07 07:10:50;;;;;;;0.50;0.50;;;;;;;;;;5037628;28;20115;-78
2023/09/07 07:13:16;;;;;;;0.70;0.70;;;;;;;;;;5043482;28;20025;-77
2023/09/07 07:15:42;;;;;;;0.50;0.50;;;;;;;;;;5052517;28;20029;-77
2023/09/07 07:18:09;;;;;;;0.65;0.55;;;;;;;;;;5056704;28;20036;-77
2023/09/07 07:20:38;;;;;;;0.40;0.40;;;;;;;;;;5045611;28;20017;-77
2023/09/07 07:23:06;;;;;;;0.40;0.40;;;;;;;;;;5038607;28;20023;-77
2023/09/07 07:25:36;;;;;;;0.50;0.50;;;;;;;;;;5037762;28;20486;-77
2023/09/07 07:28:05;;;;;;;0.47;0.47;;;;;;;;;;5037208;28;20036;-77
2023/09/07 07:30:32;;;;;;;0.73;0.73;;;;;;;;;;5036787;28;20083;-77
2023/09/07 07:32:58;;;;;;;0.93;0.85;;;;;;;;;;5036961;28;20025;-77
2023/09/07 07:35:24;;;;;;;0.47;0.47;;;;;;;;;;5036942;28;20017;-77
2023/09/07 07:37:50;;;;;;;0.40;0.40;;;;;;;;;;5036617;28;20093;-78
2023/09/07 07:40:20;;;;;;;0.50;0.50;;;;;;;;;;5036878;28;20071;-78
2023/09/07 07:42:47;;;;;;;0.60;0.60;;;;;;;;;;5036793;28;20021;-78
2023/09/07 07:45:13;;;;;;;3.63;0.65;;;;;;;;;;5036797;28;20032;-77
2023/09/07 07:47:40;;;;;;;0.80;0.80;;;;;;;;;;5036749;28;20389;-77
2023/09/07 07:50:07;;;;;;;0.50;0.50;;;;;;;;;;5036399;28;20021;-79
2023/09/07 07:52:33;;;;;;;0.50;0.50;;;;;;;;;;5036609;28;20029;-78
2023/09/07 07:55:00;;;;;;;0.50;0.50;;;;;;;;;;5033235;28;20056;-78
2023/09/07 07:57:26;;;;;;;0.50;0.50;;;;;;;;;;5037593;28;20076;-78
2023/09/07 07:59:52;;;;;;;0.40;0.40;;;;;;;;;;5039472;28;20017;-77
2023/09/07 08:02:18;;;;;;;0.50;0.50;;;;;;;;;;5034916;28;20029;-76
2023/09/07 08:04:45;;;;;;;0.40;0.40;;;;;;;;;;5037140;28;20032;-78
2023/09/07 08:07:11;;;;;;;0.80;0.80;;;;;;;;;;5033457;28;20027;-77
2023/09/07 08:09:38;;;;;;;0.60;0.60;;;;;;;;;;5033082;28;20021;-77
2023/09/07 08:12:05;;;;;;;0.95;0.70;;;;;;;;;;5031719;28;20028;-79
2023/09/07 08:14:31;;;;;;;0.60;0.60;;;;;;;;;;5033093;28;20021;-81
2023/09/07 08:16:58;;;;;;;0.65;0.65;;;;;;;;;;5032935;28;20025;-81
2023/09/07 08:19:24;;;;;;;0.68;0.68;;;;;;;;;;5032736;28;20386;-82
2023/09/07 08:21:54;;;;;;;0.40;0.40;;;;;;;;;;5021678;28;20487;-81
2023/09/07 08:24:20;;;;;;;0.45;0.43;;;;;;;;;;5013130;28;20022;-80
2023/09/07 08:26:51;;;;;;;0.43;0.43;;;;;;;;;;5012658;28;20029;-82
2023/09/07 08:29:17;;;;;;;0.70;0.70;;;;;;;;;;5013508;28;20026;-86
2023/09/07 08:31:45;;;;;;;0.40;0.40;;;;;;;;;;5013060;28;20033;-82
2023/09/07 08:34:11;;;;;;;0.52;0.52;;;;;;;;;;5013247;28;20390;-83
2023/09/07 08:36:38;;;;;;;0.55;0.52;;;;;;;;;;5013402;28;20383;-83
2023/09/07 08:39:10;;;;;;;0.55;0.55;;;;;;;;;;5013022;28;20026;-83
2023/09/07 08:41:43;;;;;;;0.40;0.40;;;;;;;;;;5015262;28;20022;-83
2023/09/07 08:44:10;;;;;;;0.45;0.45;;;;;;;;;;5014820;28;20025;-83
2023/09/07 08:46:37;;;;;;;0.55;0.55;;;;;;;;;;5013241;28;20034;-84
2023/09/07 08:49:04;;;;;;;1.02;0.93;;;;;;;;;;5013457;28;20108;-83
2023/09/07 08:51:36;;;;;;;0.50;0.50;;;;;;;;;;5012929;28;20030;-83
2023/09/07 08:54:02;;;;;;;0.40;0.40;;;;;;;;;;5013314;28;20046;-85
2023/09/07 08:56:28;;;;;;;0.88;0.73;;;;;;;;;;5013052;28;20033;-83
2023/09/07 08:58:55;;;;;;;0.50;0.50;;;;;;;;;;5012794;28;20026;-83
2023/09/07 09:01:21;;;;;;;0.40;0.40;;;;;;;;;;5012871;28;20091;-86
2023/09/07 09:03:48;;;;;;;0.40;0.40;;;;;;;;;;5013189;28;20475;-83
2023/09/07 09:06:16;;;;;;;0.50;0.50;;;;;;;;;;5012697;28;20606;-82
2023/09/07 09:08:43;;;;;;;0.75;0.75;;;;;;;;;;5012831;28;20022;-81
2023/09/07 09:11:09;;;;;;;0.50;0.50;;;;;;;;;;5013660;28;20029;-82
2023/09/07 09:13:35;;;;;;;0.45;0.45;;;;;;;;;;5012610;28;20026;-81
2023/09/07 09:16:04;;;;;;;0.60;0.60;;;;;;;;;;5012479;28;20120;-82
2023/09/07 09:18:30;;;;;;;0.60;0.60;;;;;;;;;;5012634;28;20026;-83
2023/09/07 09:20:58;;;;;;;0.50;0.50;;;;;;;;;;5008516;28;20459;-82
2023/09/07 09:23:25;;;;;;;0.57;0.57;;;;;;;;;;5013484;28;20022;-82
2023/09/07 09:25:51;;;;;;;0.50;0.50;;;;;;;;;;5011052;28;20092;-80
2023/09/07 09:28:17;;;;;;;0.63;0.60;;;;;;;;;;5011882;28;20033;-81
2023/09/07 09:30:43;;;;;;;0.80;0.77;;;;;;;;;;5012335;28;20033;-80
2023/09/07 09:33:10;;;;;;;0.50;0.50;;;;;;;;;;5022896;28;20538;-80
2023/09/07 09:35:36;;;;;;;0.60;0.60;;;;;;;;;;5031399;28;20475;-81
2023/09/07 09:38:04;;;;;;;0.40;0.40;;;;;;;;;;5031585;28;20053;-81
2023/09/07 09:40:31;;;;;;;0.50;0.50;;;;;;;;;;5031458;28;20025;-82
2023/09/07 09:42:58;;;;;;;0.43;0.43;;;;;;;;;;5031518;28;20030;-78
2023/09/07 09:45:24;;;;;;;0.60;0.60;;;;;;;;;;5031815;28;20095;-80
2023/09/07 09:47:51;;;;;;;0.40;0.40;;;;;;;;;;5021535;28;20105;-80
2023/09/07 09:50:19;;;;;;;0.45;0.45;;;;;;;;;;5031368;28;20021;-80
2023/09/07 09:52:46;;;;;;;0.55;0.55;;;;;;;;;;5031677;28;20032;-81
2023/09/07 09:55:13;;;;;;;0.40;0.40;;;;;;;;;;5031841;28;20056;-81
2023/09/07 09:57:39;;;;;;;0.30;0.30;;;;;;;;;;5031388;28;20571;-80
2023/09/07 10:02:52;;;;;;;0.65;0.60;;;;;;;;;;5032691;28;20040;-81
2023/09/07 10:05:19;;;;;;;0.50;0.50;;;;;;;;;;5034055;28;20029;-82
2023/09/07 10:07:45;;;;;;;0.57;0.57;;;;;;;;;;5035200;28;20414;-82
2023/09/07 10:10:15;;;;;;;0.40;0.40;;;;;;;;;;5034951;28;20021;-80
2023/09/07 10:12:46;;;;;;;0.50;0.50;;;;;;;;;;5035189;28;20075;-80
2023/09/07 10:15:26;;;;;;;0.40;0.40;;;;;;;;;;5035364;28;20079;-80
2023/09/07 10:18:05;;;;;;;0.85;0.60;;;;;;;;;;5034707;28;20155;-81
2023/09/07 10:20:49;;;;;;;0.55;0.50;;;;;;;;;;5035033;28;20068;-81
2023/09/07 10:23:16;;;;;;;0.63;0.55;;;;;;;;;;5034581;28;20060;-81
2023/09/07 10:25:42;;;;;;;0.35;0.35;;;;;;;;;;5034789;28;20040;-82
2023/09/07 10:28:21;;;;;;;0.30;0.30;;;;;;;;;;5035023;28;20029;-81
2023/09/07 10:30:58;;;;;;;0.30;0.30;;;;;;;;;;5034864;28;20108;-79
2023/09/07 10:33:24;;;;;;;0.38;0.38;;;;;;;;;;5036275;28;20026;-80
2023/09/07 10:35:50;;;;;;;0.30;0.30;;;;;;;;;;5034714;28;20090;-82
2023/09/07 10:38:16;;;;;;;0.43;0.43;;;;;;;;;;5034463;28;20025;-80
2023/09/07 10:40:47;;;;;;;0.30;0.30;;;;;;;;;;5034662;28;20529;-80
2023/09/07 10:43:14;;;;;;;0.50;0.50;;;;;;;;;;5034400;28;20112;-80
2023/09/07 10:45:40;;;;;;;0.50;0.50;;;;;;;;;;5034063;28;20517;-79
2023/09/07 10:48:07;;;;;;;0.30;0.30;;;;;;;;;;5034620;28;20026;-79
2023/09/07 10:50:43;;;;;;;0.32;0.32;;;;;;;;;;5034668;28;20505;-80
2023/09/07 10:53:09;;;;;;;0.30;0.30;;;;;;;;;;5036257;28;20417;-80
2023/09/07 10:55:39;;;;;;;0.57;0.30;;;;;;;;;;5037960;28;20083;-83
2023/09/07 10:58:06;;;;;;;0.30;0.30;;;;;;;;;;5037830;28;20120;-82
2023/09/07 11:00:32;;;;;;;0.20;0.20;;;;;;;;;;5037841;28;20123;-80
2023/09/07 11:02:58;;;;;;;0.55;0.50;;;;;;;;;;5040964;28;20124;-82
2023/09/07 11:05:24;;;;;;;0.68;0.55;;;;;;;;;;5044932;28;20031;-82
2023/09/07 11:07:52;;;;;;;0.45;0.45;;;;;;;;;;5059290;28;20033;-82
2023/09/07 11:10:18;;;;;;;0.35;0.35;;;;;;;;;;5039199;28;20083;-81
2023/09/07 11:12:44;;;;;;;0.30;0.30;;;;;;;;;;5037607;28;20024;-85
2023/09/07 11:15:11;;;;;;;1.10;0.40;;;;;;;;;;5037583;28;20378;-83
2023/09/07 11:17:38;;;;;;;0.32;0.32;;;;;;;;;;5038104;28;20122;-80
2023/09/07 11:20:07;;;;;;;0.20;0.20;;;;;;;;;;5037930;28;20028;-81
2023/09/07 11:22:33;;;;;;;0.77;0.60;;;;;;;;;;5038909;28;20061;-80
2023/09/07 11:25:03;;;;;;;0.38;0.30;;;;;;;;;;5037712;28;20039;-80
2023/09/07 11:27:32;;;;;;;0.52;0.40;;;;;;;;;;5037027;28;20515;-80
2023/09/07 11:30:00;;;;;;;0.38;0.38;;;;;;;;;;5037448;28;20029;-80
2023/09/07 11:32:33;;;;;;;0.30;0.30;;;;;;;;;;5056238;28;20013;-81
2023/09/07 11:34:59;;;;;;;0.38;0.38;;;;;;;;;;5031781;28;20025;-81
2023/09/07 11:37:26;;;;;;;0.32;0.28;;;;;;;;;;5036396;28;20092;-81
2023/09/07 11:39:52;;;;;;;0.35;0.35;;;;;;;;;;5017067;28;20022;-81
2023/09/07 11:42:18;;;;;;;0.52;0.43;;;;;;;;;;5016951;28;20426;-80
2023/09/07 11:44:44;;;;;;;0.30;0.30;;;;;;;;;;5016908;28;20092;-79
2023/09/07 11:47:10;;;;;;;0.35;0.30;;;;;;;;;;5016890;28;20021;-80
2023/09/07 11:49:36;;;;;;;0.25;0.22;;;;;;;;;;5016554;28;20030;-80
2023/09/07 11:52:03;;;;;;;0.45;0.40;;;;;;;;;;5016861;28;20067;-80
2023/09/07 11:54:29;;;;;;;0.63;0.50;;;;;;;;;;5034104;28;20049;-79
2023/09/07 11:56:55;;;;;;;0.25;0.25;;;;;;;;;;5034099;28;20087;-80
2023/09/07 11:59:22;;;;;;;0.98;0.55;;;;;;;;;;5034410;28;20025;-82
2023/09/07 12:01:48;;;;;;;0.70;0.40;;;;;;;;;;5016545;28;20022;-80
2023/09/07 12:04:14;;;;;;;0.47;0.40;;;;;;;;;;5016761;28;20478;-81
2023/09/07 12:06:40;;;;;;;0.85;0.60;;;;;;;;;;5016621;28;20025;-81
2023/09/07 12:09:09;;;;;;;0.68;0.50;;;;;;;;;;5016369;28;20030;-80
2023/09/07 12:11:35;;;;;;;0.40;0.40;;;;;;;;;;5034584;28;20022;-80
2023/09/07 12:14:01;;;;;;;0.35;0.35;;;;;;;;;;5016610;28;20116;-80
2023/09/07 12:16:27;;;;;;;0.75;0.30;;;;;;;;;;5016513;28;20386;-81
2023/09/07 12:18:54;;;;;;;0.30;0.30;;;;;;;;;;5016680;28;20175;-79
2023/09/07 12:21:20;;;;;;;0.10;0.10;;;;;;;;;;5016860;28;20095;-80
2023/09/07 12:23:46;;;;;;;0.77;0.43;;;;;;;;;;5016133;28;20018;-80
2023/09/07 12:26:22;;;;;;;0.30;0.30;;;;;;;;;;5015931;28;20029;-80
2023/09/07 12:28:48;;;;;;;0.73;0.38;;;;;;;;;;5016287;28;20120;-80
2023/09/07 12:31:15;;;;;;;0.40;0.40;;;;;;;;;;5016058;28;20108;-79
2023/09/07 12:33:41;;;;;;;0.30;0.30;;;;;;;;;;5016292;28;20034;-79
2023/09/07 12:36:09;;;;;;;0.57;0.57;;;;;;;;;;5016284;28;20120;-78
2023/09/07 12:38:36;;;;;;;0.57;0.30;;;;;;;;;;5016300;28;20490;-78
2023/09/07 12:41:02;;;;;;;0.20;0.20;;;;;;;;;;5017064;28;20033;-78
2023/09/07 12:43:28;;;;;;;0.30;0.30;;;;;;;;;;5021670;28;20026;-78
2023/09/07 12:45:55;;;;;;;0.32;0.25;;;;;;;;;;5037301;28;20064;-79
2023/09/07 12:48:21;;;;;;;0.20;0.20;;;;;;;;;;5016401;28;20363;-79
2023/09/07 12:50:47;;;;;;;0.10;0.10;;;;;;;;;;5016225;28;20027;-79
2023/09/07 12:53:14;;;;;;;0.75;0.45;;;;;;;;;;5033530;28;20034;-79
2023/09/07 12:55:40;;;;;;;0.43;0.30;;;;;;;;;;5015848;28;20037;-79
2023/09/07 12:58:07;;;;;;;0.35;0.35;;;;;;;;;;5033379;28;20487;-80
2023/09/07 13:00:33;;;;;;;0.43;0.30;;;;;;;;;;5015937;28;20108;-79
2023/09/07 13:02:59;;;;;;;0.30;0.30;;;;;;;;;;5016314;28;20108;-79
2023/09/07 13:05:25;;;;;;;0.30;0.30;;;;;;;;;;5034178;28;20025;-79
2023/09/07 13:07:54;;;;;;;0.38;0.38;;;;;;;;;;5034667;28;20026;-80
2023/09/07 13:10:20;;;;;;;0.30;0.30;;;;;;;;;;5015610;28;20080;-80
2023/09/07 13:12:46;;;;;;;0.30;0.30;;;;;;;;;;5034187;28;20017;-80
2023/09/07 13:15:12;;;;;;;0.20;0.20;;;;;;;;;;5015757;28;20029;-80
2023/09/07 13:17:38;;;;;;;0.20;0.20;;;;;;;;;;5033188;28;20049;-80
2023/09/07 13:20:05;;;;;;;0.30;0.30;;;;;;;;;;5015739;28;20090;-79
2023/09/07 13:22:31;;;;;;;0.43;0.30;;;;;;;;;;5015431;28;20121;-79
2023/09/07 13:24:58;;;;;;;0.25;0.25;;;;;;;;;;5015578;28;20036;-79
2023/09/07 13:27:25;;;;;;;0.22;0.22;;;;;;;;;;5015768;28;20108;-80
2023/09/07 13:29:52;;;;;;;0.30;0.30;;;;;;;;;;5015537;28;20386;-80
2023/09/07 13:32:18;;;;;;;0.30;0.30;;;;;;;;;;5016501;28;20017;-80
2023/09/07 13:34:44;;;;;;;0.30;0.30;;;;;;;;;;5015598;28;20022;-79
2023/09/07 13:37:10;;;;;;;0.32;0.32;;;;;;;;;;5015438;28;20021;-79
2023/09/07 13:39:36;;;;;;;0.20;0.20;;;;;;;;;;5018968;28;20409;-80
2023/09/07 13:42:02;;;;;;;1.10;0.63;;;;;;;;;;5019446;28;20083;-80
2023/09/07 13:44:28;;;;;;;0.20;0.20;;;;;;;;;;5018932;28;20021;-78
2023/09/07 13:46:55;;;;;;;0.35;0.35;;;;;;;;;;5019417;28;20030;-81
2023/09/07 13:49:21;;;;;;;0.73;0.50;;;;;;;;;;5019387;28;20056;-80
2023/09/07 13:51:47;;;;;;;0.40;0.40;;;;;;;;;;5018944;28;20017;-80
2023/09/07 13:54:13;;;;;;;0.47;0.40;;;;;;;;;;5019113;28;20114;-80
2023/09/07 13:56:41;;;;;;;0.60;0.47;;;;;;;;;;5019079;28;20057;-78
2023/09/07 13:59:07;;;;;;;0.22;0.22;;;;;;;;;;5018745;28;20108;-78
2023/09/07 14:01:33;;;;;;;0.50;0.40;;;;;;;;;;5019834;28;20017;-79
2023/09/07 14:03:59;;;;;;;1.42;0.50;;;;;;;;;;5036369;28;20029;-78
2023/09/07 14:06:25;;;;;;;0.25;0.25;;;;;;;;;;5018559;28;20048;-79
2023/09/07 14:08:52;;;;;;;0.30;0.30;;;;;;;;;;5018997;28;20026;-78
2023/09/07 14:11:18;;;;;;;0.20;0.20;;;;;;;;;;5018509;28;20029;-79
2023/09/07 14:13:46;;;;;;;0.38;0.30;;;;;;;;;;5018574;28;20033;-79
2023/09/07 14:16:13;;;;;;;0.63;0.35;;;;;;;;;;5019570;28;20026;-78
2023/09/07 14:18:39;;;;;;;0.30;0.30;;;;;;;;;;5018422;28;20117;-79
2023/09/07 14:21:05;;;;;;;0.25;0.25;;;;;;;;;;5036173;28;20043;-79
2023/09/07 14:23:31;;;;;;;0.38;0.38;;;;;;;;;;5018544;28;20022;-79
2023/09/07 14:25:58;;;;;;;0.35;0.35;;;;;;;;;;5018094;28;20025;-81
2023/09/07 14:28:24;;;;;;;0.50;0.30;;;;;;;;;;5018655;28;20025;-80
2023/09/07 14:30:53;;;;;;;0.30;0.30;;;;;;;;;;5018469;28;20028;-78
2023/09/07 14:33:20;;;;;;;0.22;0.22;;;;;;;;;;5036012;28;20097;-78
2023/09/07 14:35:46;;;;;;;0.60;0.40;;;;;;;;;;5018672;28;20474;-78
2023/09/07 14:38:13;;;;;;;0.20;0.20;;;;;;;;;;5018581;28;20537;-78
2023/09/07 14:40:39;;;;;;;0.20;0.20;;;;;;;;;;5018103;28;20120;-81
2023/09/07 14:43:05;;;;;;;0.20;0.20;;;;;;;;;;5019292;28;20378;-80